Pagrindinis puslapis
METAR-TAF:

METAR-TAF

Oro uostai :

Abudža, Nigerija

platuma: 9-00-24N, ilguma: 7-15-47E, Aukštis: 342 m

Dabartinis oras

Ataskaita buvo paskelbta 25 minutes, ne 21:00 UTC
Vėjas 3 kt iš Vakarų
Temperatūra 30°C
Drėgmė 66%
Slėgis 1011 hPa
Matomumas 10 km arba daugiau
nėra debesų žemiau 1500 m ir nėra kamuolinių lietaus debesų

METAR: DNAA 152100Z 26003KT CAVOK 30/23 Q1011 NOSIG

Laikas: 22:25 (21:25 UTC)

Prognozė

Ataskaita buvo paskelbta 4 valandos ir 25 minutes, ne 17:00 UTC
Prognozė galioja nuo 15 metu 18 UTC su 16 metu 24 UTC
Vėjas 2 kt nuo kintamojo kryptimis
Matomumas 10 km arba daugiau
Mažai debesys ne aukštis 1500 ft
Laikinai
nuo 16 metu 12 UTC su 16 metu 18 UTC
Vėjas 10 kt iš Pietvakarių
Su prošvaistėmis ne aukštis 1200 ft

TAF: DNAA 151700Z 1518/1624 VRB02KT 9999 FEW015 TEMPO 1612/1618 22010KT BKN012

Orai ataskaitas ir orų prognozės (METAR, TAF).

turimą stotys yra geltonos ir raudonos taškus žemėlapyje.

Perkelti pele per norėdami pamatyti stoties vardą.

Tada spustelėkite, norėdami matyti oro stebėjimo ir prognozės.

Norėdami pakeisti žemėlapį: spustelėkite ant žalios mygtukų su juodo kryžiaus žemyn,; žalią mygtuką su brūkšneliu, jei norite nutolinti; arba žalių rodyklių gretimoms žemėlapius.


METAR-TAF: